sensor_id;sensor_type;location;lat;lon;timestamp;pressure;altitude;pressure_sealevel;temperature;humidity
8294;BME280;4185;41.506;24.938;2023-04-26T00:01:00;92595.88;;;10.41;98.09
8294;BME280;4185;41.506;24.938;2023-04-26T00:03:29;92591.16;;;10.42;99.09
8294;BME280;4185;41.506;24.938;2023-04-26T00:05:58;92585.19;;;10.49;98.77
8294;BME280;4185;41.506;24.938;2023-04-26T00:08:29;92579.22;;;10.56;97.68
8294;BME280;4185;41.506;24.938;2023-04-26T00:10:56;92575.56;;;10.53;98.69
8294;BME280;4185;41.506;24.938;2023-04-26T00:13:23;92580.50;;;10.49;98.85
8294;BME280;4185;41.506;24.938;2023-04-26T00:15:50;92567.44;;;10.48;97.98
8294;BME280;4185;41.506;24.938;2023-04-26T00:18:17;92575.81;;;10.50;98.51
8294;BME280;4185;41.506;24.938;2023-04-26T00:20:43;92573.63;;;10.48;99.32
8294;BME280;4185;41.506;24.938;2023-04-26T00:23:10;92574.34;;;10.49;98.90
8294;BME280;4185;41.506;24.938;2023-04-26T00:25:38;92576.84;;;10.47;98.19
8294;BME280;4185;41.506;24.938;2023-04-26T00:28:05;92571.22;;;10.39;98.65
8294;BME280;4185;41.506;24.938;2023-04-26T00:30:34;92561.66;;;10.33;99.67
8294;BME280;4185;41.506;24.938;2023-04-26T00:33:02;92566.34;;;10.32;99.73
8294;BME280;4185;41.506;24.938;2023-04-26T00:35:29;92564.66;;;10.29;99.82
8294;BME280;4185;41.506;24.938;2023-04-26T00:37:56;92565.38;;;10.30;100.00
8294;BME280;4185;41.506;24.938;2023-04-26T00:40:22;92557.69;;;10.34;100.00
8294;BME280;4185;41.506;24.938;2023-04-26T00:42:56;92553.75;;;10.35;100.00
8294;BME280;4185;41.506;24.938;2023-04-26T00:45:23;92551.03;;;10.35;100.00
8294;BME280;4185;41.506;24.938;2023-04-26T00:47:49;92556.97;;;10.33;100.00
8294;BME280;4185;41.506;24.938;2023-04-26T00:50:17;92557.25;;;10.30;99.76
8294;BME280;4185;41.506;24.938;2023-04-26T00:52:44;92559.72;;;10.28;100.00
8294;BME280;4185;41.506;24.938;2023-04-26T00:55:13;92555.31;;;10.25;100.00
8294;BME280;4185;41.506;24.938;2023-04-26T00:57:40;92554.34;;;10.22;100.00
8294;BME280;4185;41.506;24.938;2023-04-26T01:00:10;92558.56;;;10.18;100.00
8294;BME280;4185;41.506;24.938;2023-04-26T01:02:37;92551.88;;;10.19;100.00
8294;BME280;4185;41.506;24.938;2023-04-26T01:05:04;92550.66;;;10.20;100.00
8294;BME280;4185;41.506;24.938;2023-04-26T01:07:32;92554.16;;;10.15;100.00
8294;BME280;4185;41.506;24.938;2023-04-26T01:09:59;92551.44;;;10.15;100.00
8294;BME280;4185;41.506;24.938;2023-04-26T01:12:25;92552.66;;;10.14;100.00
8294;BME280;4185;41.506;24.938;2023-04-26T01:14:54;92552.44;;;10.12;100.00
8294;BME280;4185;41.506;24.938;2023-04-26T01:17:22;92553.91;;;10.13;100.00
8294;BME280;4185;41.506;24.938;2023-04-26T01:19:50;92551.22;;;10.07;100.00
8294;BME280;4185;41.506;24.938;2023-04-26T01:22:17;92552.50;;;10.01;100.00
8294;BME280;4185;41.506;24.938;2023-04-26T01:24:49;92553.06;;;9.88;100.00
8294;BME280;4185;41.506;24.938;2023-04-26T01:27:16;92554.09;;;9.79;100.00
8294;BME280;4185;41.506;24.938;2023-04-26T01:29:43;92553.84;;;9.83;100.00
8294;BME280;4185;41.506;24.938;2023-04-26T01:32:10;92556.56;;;9.83;100.00
8294;BME280;4185;41.506;24.938;2023-04-26T01:34:37;92571.13;;;9.80;100.00
8294;BME280;4185;41.506;24.938;2023-04-26T01:37:04;92566.69;;;9.82;100.00
8294;BME280;4185;41.506;24.938;2023-04-26T01:39:32;92569.09;;;9.86;100.00
8294;BME280;4185;41.506;24.938;2023-04-26T01:42:00;92576.28;;;9.83;100.00
8294;BME280;4185;41.506;24.938;2023-04-26T01:44:27;92570.31;;;9.91;100.00
8294;BME280;4185;41.506;24.938;2023-04-26T01:46:54;92565.34;;;9.95;100.00
8294;BME280;4185;41.506;24.938;2023-04-26T01:49:21;92568.56;;;9.93;100.00
8294;BME280;4185;41.506;24.938;2023-04-26T01:51:48;92566.38;;;9.92;100.00
8294;BME280;4185;41.506;24.938;2023-04-26T01:54:14;92562.88;;;9.97;100.00
8294;BME280;4185;41.506;24.938;2023-04-26T01:56:41;92556.91;;;10.04;100.00
8294;BME280;4185;41.506;24.938;2023-04-26T01:59:09;92548.09;;;9.98;100.00
8294;BME280;4185;41.506;24.938;2023-04-26T02:01:36;92551.75;;;10.00;100.00
8294;BME280;4185;41.506;24.938;2023-04-26T02:04:03;92545.81;;;10.02;100.00
8294;BME280;4185;41.506;24.938;2023-04-26T02:06:30;92543.38;;;9.98;100.00
8294;BME280;4185;41.506;24.938;2023-04-26T02:08:57;92552.50;;;10.01;100.00
8294;BME280;4185;41.506;24.938;2023-04-26T02:11:24;92556.16;;;10.03;100.00
8294;BME280;4185;41.506;24.938;2023-04-26T02:13:51;92562.44;;;9.93;100.00
8294;BME280;4185;41.506;24.938;2023-04-26T02:16:20;92559.50;;;9.85;100.00
8294;BME280;4185;41.506;24.938;2023-04-26T02:18:47;92548.69;;;9.79;100.00
8294;BME280;4185;41.506;24.938;2023-04-26T02:21:15;92541.28;;;9.85;100.00
8294;BME280;4185;41.506;24.938;2023-04-26T02:23:43;92534.28;;;9.96;100.00
8294;BME280;4185;41.506;24.938;2023-04-26T02:26:10;92538.69;;;9.99;100.00
8294;BME280;4185;41.506;24.938;2023-04-26T02:28:37;92536.00;;;9.99;100.00
8294;BME280;4185;41.506;24.938;2023-04-26T02:31:04;92562.63;;;9.95;100.00
8294;BME280;4185;41.506;24.938;2023-04-26T02:33:32;92558.00;;;9.89;100.00
8294;BME280;4185;41.506;24.938;2023-04-26T02:36:02;92548.69;;;9.79;100.00
8294;BME280;4185;41.506;24.938;2023-04-26T02:38:29;92555.13;;;9.76;100.00
8294;BME280;4185;41.506;24.938;2023-04-26T02:40:59;92551.94;;;9.72;100.00
8294;BME280;4185;41.506;24.938;2023-04-26T02:43:26;92551.22;;;9.72;100.00
8294;BME280;4185;41.506;24.938;2023-04-26T02:45:53;92555.91;;;9.71;100.00
8294;BME280;4185;41.506;24.938;2023-04-26T02:48:23;92562.78;;;9.72;100.00
8294;BME280;4185;41.506;24.938;2023-04-26T02:50:51;92560.84;;;9.67;100.00
8294;BME280;4185;41.506;24.938;2023-04-26T02:53:18;92562.09;;;9.66;100.00
8294;BME280;4185;41.506;24.938;2023-04-26T02:55:45;92560.16;;;9.61;100.00
8294;BME280;4185;41.506;24.938;2023-04-26T02:58:12;92562.38;;;9.57;100.00
8294;BME280;4185;41.506;24.938;2023-04-26T03:00:44;92570.56;;;9.52;100.00
8294;BME280;4185;41.506;24.938;2023-04-26T03:03:11;92572.03;;;9.47;100.00
8294;BME280;4185;41.506;24.938;2023-04-26T03:05:38;92572.03;;;9.47;100.00
8294;BME280;4185;41.506;24.938;2023-04-26T03:08:07;92567.84;;;9.52;100.00
8294;BME280;4185;41.506;24.938;2023-04-26T03:10:34;92567.34;;;9.53;100.00
8294;BME280;4185;41.506;24.938;2023-04-26T03:13:01;92572.28;;;9.49;100.00
8294;BME280;4185;41.506;24.938;2023-04-26T03:15:28;92574.50;;;9.45;100.00
8294;BME280;4185;41.506;24.938;2023-04-26T03:17:55;92575.72;;;9.50;100.00
8294;BME280;4185;41.506;24.938;2023-04-26T03:20:22;92565.63;;;9.50;100.00
8294;BME280;4185;41.506;24.938;2023-04-26T03:22:49;92563.41;;;9.49;100.00
8294;BME280;4185;41.506;24.938;2023-04-26T03:25:17;92563.91;;;9.47;100.00
8294;BME280;4185;41.506;24.938;2023-04-26T03:27:44;92559.97;;;9.48;100.00
8294;BME280;4185;41.506;24.938;2023-04-26T03:30:11;92565.91;;;9.47;100.00
8294;BME280;4185;41.506;24.938;2023-04-26T03:32:39;92567.88;;;9.46;100.00
8294;BME280;4185;41.506;24.938;2023-04-26T03:35:06;92558.75;;;9.44;100.00
8294;BME280;4185;41.506;24.938;2023-04-26T03:37:33;92562.94;;;9.45;100.00
8294;BME280;4185;41.506;24.938;2023-04-26T03:40:00;92570.56;;;9.46;100.00
8294;BME280;4185;41.506;24.938;2023-04-26T03:42:28;92571.59;;;9.43;100.00
8294;BME280;4185;41.506;24.938;2023-04-26T03:44:55;92576.75;;;9.47;100.00
8294;BME280;4185;41.506;24.938;2023-04-26T03:47:21;92580.66;;;9.51;100.00
8294;BME280;4185;41.506;24.938;2023-04-26T03:49:48;92575.94;;;9.57;100.00
8294;BME280;4185;41.506;24.938;2023-04-26T03:52:15;92575.47;;;9.53;100.00
8294;BME280;4185;41.506;24.938;2023-04-26T03:54:42;92577.19;;;9.51;100.00
8294;BME280;4185;41.506;24.938;2023-04-26T03:57:09;92583.13;;;9.49;100.00
8294;BME280;4185;41.506;24.938;2023-04-26T03:59:37;92579.94;;;9.45;100.00
8294;BME280;4185;41.506;24.938;2023-04-26T04:02:04;92578.19;;;9.48;100.00
8294;BME280;4185;41.506;24.938;2023-04-26T04:04:30;92583.63;;;9.48;99.88
8294;BME280;4185;41.506;24.938;2023-04-26T04:06:58;92584.41;;;9.37;100.00
8294;BME280;4185;41.506;24.938;2023-04-26T04:09:25;92578.53;;;9.33;99.10
8294;BME280;4185;41.506;24.938;2023-04-26T04:11:52;92573.09;;;9.33;99.68
8294;BME280;4185;41.506;24.938;2023-04-26T04:14:19;92565.91;;;9.41;100.00
8294;BME280;4185;41.506;24.938;2023-04-26T04:16:47;92577.69;;;9.49;99.10
8294;BME280;4185;41.506;24.938;2023-04-26T04:19:14;92576.44;;;9.56;98.49
8294;BME280;4185;41.506;24.938;2023-04-26T04:21:41;92574.94;;;9.60;98.33
8294;BME280;4185;41.506;24.938;2023-04-26T04:24:08;92580.16;;;9.53;95.40
8294;BME280;4185;41.506;24.938;2023-04-26T04:26:34;92576.69;;;9.52;95.72
8294;BME280;4185;41.506;24.938;2023-04-26T04:29:02;92580.41;;;9.49;95.65
8294;BME280;4185;41.506;24.938;2023-04-26T04:31:33;92579.19;;;9.50;96.20
8294;BME280;4185;41.506;24.938;2023-04-26T04:34:01;92579.72;;;9.43;94.82
8294;BME280;4185;41.506;24.938;2023-04-26T04:36:28;92585.63;;;9.42;95.84
8294;BME280;4185;41.506;24.938;2023-04-26T04:38:55;92585.34;;;9.45;95.82
8294;BME280;4185;41.506;24.938;2023-04-26T04:41:22;92582.41;;;9.43;94.96
8294;BME280;4185;41.506;24.938;2023-04-26T04:43:49;92585.16;;;9.38;94.11
8294;BME280;4185;41.506;24.938;2023-04-26T04:46:18;92587.13;;;9.37;93.95
8294;BME280;4185;41.506;24.938;2023-04-26T04:48:45;92588.81;;;9.40;94.59
8294;BME280;4185;41.506;24.938;2023-04-26T04:51:13;92578.19;;;9.48;95.79
8294;BME280;4185;41.506;24.938;2023-04-26T04:53:40;92580.91;;;9.53;95.22
8294;BME280;4185;41.506;24.938;2023-04-26T04:56:06;92579.13;;;9.61;94.54
8294;BME280;4185;41.506;24.938;2023-04-26T04:58:34;92588.03;;;9.56;92.91
8294;BME280;4185;41.506;24.938;2023-04-26T05:01:01;92580.13;;;9.58;94.64
8294;BME280;4185;41.506;24.938;2023-04-26T05:03:28;92583.53;;;9.64;94.54
8294;BME280;4185;41.506;24.938;2023-04-26T05:05:56;92589.19;;;9.66;94.08
8294;BME280;4185;41.506;24.938;2023-04-26T05:08:24;92580.28;;;9.71;94.89
8294;BME280;4185;41.506;24.938;2023-04-26T05:10:51;92577.56;;;9.77;95.31
8294;BME280;4185;41.506;24.938;2023-04-26T05:13:18;92580.25;;;9.82;95.15
8294;BME280;4185;41.506;24.938;2023-04-26T05:15:45;92571.59;;;9.84;94.33
8294;BME280;4185;41.506;24.938;2023-04-26T05:18:12;92569.34;;;9.88;94.96
8294;BME280;4185;41.506;24.938;2023-04-26T05:20:39;92570.31;;;9.91;94.09
8294;BME280;4185;41.506;24.938;2023-04-26T05:23:06;92568.66;;;9.82;94.23
8294;BME280;4185;41.506;24.938;2023-04-26T05:25:36;92571.34;;;9.88;94.90
8294;BME280;4185;41.506;24.938;2023-04-26T05:28:03;92571.56;;;9.89;93.94
8294;BME280;4185;41.506;24.938;2023-04-26T05:30:32;92584.13;;;9.93;93.32
8294;BME280;4185;41.506;24.938;2023-04-26T05:32:59;92567.06;;;9.98;93.48
8294;BME280;4185;41.506;24.938;2023-04-26T05:35:26;92567.75;;;10.04;93.22
8294;BME280;4185;41.506;24.938;2023-04-26T05:37:53;92557.16;;;10.11;93.41
8294;BME280;4185;41.506;24.938;2023-04-26T05:40:20;92562.31;;;10.15;92.33
8294;BME280;4185;41.506;24.938;2023-04-26T05:42:49;92563.78;;;10.10;92.94
8294;BME280;4185;41.506;24.938;2023-04-26T05:45:16;92558.69;;;9.96;93.32
8294;BME280;4185;41.506;24.938;2023-04-26T05:47:43;92565.69;;;9.80;94.48
8294;BME280;4185;41.506;24.938;2023-04-26T05:50:12;92567.16;;;9.81;95.18
8294;BME280;4185;41.506;24.938;2023-04-26T05:52:38;92571.53;;;9.95;95.29
8294;BME280;4185;41.506;24.938;2023-04-26T05:55:06;92551.34;;;9.91;94.21
8294;BME280;4185;41.506;24.938;2023-04-26T05:57:33;92563.63;;;9.97;94.73
8294;BME280;4185;41.506;24.938;2023-04-26T06:00:02;92562.16;;;9.96;93.79
8294;BME280;4185;41.506;24.938;2023-04-26T06:02:29;92559.63;;;10.04;93.44
8294;BME280;4185;41.506;24.938;2023-04-26T06:04:56;92561.31;;;10.07;93.64
8294;BME280;4185;41.506;24.938;2023-04-26T06:07:23;92571.47;;;10.06;93.29
8294;BME280;4185;41.506;24.938;2023-04-26T06:09:50;92564.56;;;10.00;93.29
8294;BME280;4185;41.506;24.938;2023-04-26T06:12:17;92564.03;;;10.07;92.87
8294;BME280;4185;41.506;24.938;2023-04-26T06:14:44;92566.72;;;10.18;93.43
8294;BME280;4185;41.506;24.938;2023-04-26T06:17:12;92565.94;;;10.23;92.45
8294;BME280;4185;41.506;24.938;2023-04-26T06:19:39;92562.19;;;10.26;91.95
8294;BME280;4185;41.506;24.938;2023-04-26T06:22:05;92556.22;;;10.33;91.03
8294;BME280;4185;41.506;24.938;2023-04-26T06:24:32;92554.66;;;10.43;91.91
8294;BME280;4185;41.506;24.938;2023-04-26T06:26:59;92552.28;;;10.58;91.21
8294;BME280;4185;41.506;24.938;2023-04-26T06:29:29;92549.78;;;10.65;90.51
8294;BME280;4185;41.506;24.938;2023-04-26T06:31:57;92546.69;;;10.74;89.88
8294;BME280;4185;41.506;24.938;2023-04-26T06:34:25;92540.38;;;10.90;88.82
8294;BME280;4185;41.506;24.938;2023-04-26T06:36:52;92532.84;;;11.02;88.19
8294;BME280;4185;41.506;24.938;2023-04-26T06:39:19;92534.41;;;11.16;87.69
8294;BME280;4185;41.506;24.938;2023-04-26T06:41:46;92523.34;;;11.33;88.05
8294;BME280;4185;41.506;24.938;2023-04-26T06:44:13;92529.34;;;11.44;87.42
8294;BME280;4185;41.506;24.938;2023-04-26T06:46:39;92528.78;;;11.51;87.52
8294;BME280;4185;41.506;24.938;2023-04-26T06:49:06;92531.34;;;11.62;87.15
8294;BME280;4185;41.506;24.938;2023-04-26T06:51:36;92519.38;;;11.71;87.49
8294;BME280;4185;41.506;24.938;2023-04-26T06:54:03;92526.44;;;11.79;87.86
8294;BME280;4185;41.506;24.938;2023-04-26T06:56:30;92532.03;;;11.87;87.41
8294;BME280;4185;41.506;24.938;2023-04-26T06:58:58;92526.41;;;11.98;86.17
8294;BME280;4185;41.506;24.938;2023-04-26T07:01:25;92526.97;;;12.09;85.34
8294;BME280;4185;41.506;24.938;2023-04-26T07:03:54;92525.97;;;12.12;85.24
8294;BME280;4185;41.506;24.938;2023-04-26T07:06:21;92533.72;;;12.21;85.86
8294;BME280;4185;41.506;24.938;2023-04-26T07:08:50;92526.50;;;12.24;85.02
8294;BME280;4185;41.506;24.938;2023-04-26T07:11:17;92531.13;;;12.29;83.92
8294;BME280;4185;41.506;24.938;2023-04-26T07:13:43;92530.84;;;12.46;84.37
8294;BME280;4185;41.506;24.938;2023-04-26T07:16:10;92528.38;;;12.61;84.38
8294;BME280;4185;41.506;24.938;2023-04-26T07:18:38;92518.75;;;12.73;82.74
8294;BME280;4185;41.506;24.938;2023-04-26T07:21:05;92515.81;;;12.84;82.00
8294;BME280;4185;41.506;24.938;2023-04-26T07:23:32;92514.88;;;12.94;81.28
8294;BME280;4185;41.506;24.938;2023-04-26T07:26:00;92514.50;;;13.03;81.73
8294;BME280;4185;41.506;24.938;2023-04-26T07:28:28;92514.81;;;13.13;79.73
8294;BME280;4185;41.506;24.938;2023-04-26T07:30:57;92511.00;;;13.16;78.20
8294;BME280;4185;41.506;24.938;2023-04-26T07:33:24;92504.84;;;13.15;77.27
8294;BME280;4185;41.506;24.938;2023-04-26T07:35:54;92491.84;;;13.08;71.94
8294;BME280;4185;41.506;24.938;2023-04-26T07:38:22;92496.97;;;13.12;74.62
8294;BME280;4185;41.506;24.938;2023-04-26T07:40:49;92499.78;;;13.19;74.87
8294;BME280;4185;41.506;24.938;2023-04-26T07:43:17;92503.78;;;13.31;75.49
8294;BME280;4185;41.506;24.938;2023-04-26T07:45:45;92502.81;;;13.42;76.18
8294;BME280;4185;41.506;24.938;2023-04-26T07:48:12;92495.97;;;13.48;76.16
8294;BME280;4185;41.506;24.938;2023-04-26T07:50:38;92505.59;;;13.63;76.52
8294;BME280;4185;41.506;24.938;2023-04-26T07:53:05;92499.47;;;13.83;74.98
8294;BME280;4185;41.506;24.938;2023-04-26T07:55:32;92498.34;;;13.99;74.16
8294;BME280;4185;41.506;24.938;2023-04-26T07:57:59;92502.59;;;14.07;71.65
8294;BME280;4185;41.506;24.938;2023-04-26T08:00:28;92490.69;;;14.18;72.83
8294;BME280;4185;41.506;24.938;2023-04-26T08:02:55;92496.53;;;14.35;72.53
8294;BME280;4185;41.506;24.938;2023-04-26T08:05:21;92485.69;;;14.42;71.80
8294;BME280;4185;41.506;24.938;2023-04-26T08:07:48;92478.13;;;14.56;71.08
8294;BME280;4185;41.506;24.938;2023-04-26T08:10:15;92473.78;;;14.60;70.19
8294;BME280;4185;41.506;24.938;2023-04-26T08:12:42;92472.94;;;14.73;69.45
8294;BME280;4185;41.506;24.938;2023-04-26T08:15:10;92470.69;;;14.85;68.91
8294;BME280;4185;41.506;24.938;2023-04-26T08:17:38;92461.28;;;15.01;67.42
8294;BME280;4185;41.506;24.938;2023-04-26T08:20:07;92451.16;;;15.16;67.56
8294;BME280;4185;41.506;24.938;2023-04-26T08:22:34;92452.25;;;15.13;64.40
8294;BME280;4185;41.506;24.938;2023-04-26T08:25:01;92451.50;;;15.13;65.44
8294;BME280;4185;41.506;24.938;2023-04-26T08:27:29;92448.56;;;15.11;67.95
8294;BME280;4185;41.506;24.938;2023-04-26T08:29:58;92450.16;;;14.99;68.27
8294;BME280;4185;41.506;24.938;2023-04-26T08:32:25;92450.25;;;14.86;69.36
8294;BME280;4185;41.506;24.938;2023-04-26T08:34:53;92449.44;;;14.70;66.79
8294;BME280;4185;41.506;24.938;2023-04-26T08:37:20;92454.25;;;14.56;65.40
8294;BME280;4185;41.506;24.938;2023-04-26T08:39:47;92454.34;;;14.43;65.38
8294;BME280;4185;41.506;24.938;2023-04-26T08:42:15;92454.69;;;14.40;66.31
8294;BME280;4185;41.506;24.938;2023-04-26T08:44:43;92462.28;;;14.34;65.71
8294;BME280;4185;41.506;24.938;2023-04-26T08:47:14;92458.94;;;14.28;65.02
8294;BME280;4185;41.506;24.938;2023-04-26T08:49:43;92451.28;;;14.26;64.32
8294;BME280;4185;41.506;24.938;2023-04-26T08:52:14;92457.88;;;14.31;64.26
8294;BME280;4185;41.506;24.938;2023-04-26T08:54:41;92453.91;;;14.32;65.66
8294;BME280;4185;41.506;24.938;2023-04-26T08:57:08;92455.47;;;14.27;66.31
8294;BME280;4185;41.506;24.938;2023-04-26T08:59:36;92455.94;;;14.18;65.84
8294;BME280;4185;41.506;24.938;2023-04-26T09:02:04;92455.16;;;14.10;66.30
8294;BME280;4185;41.506;24.938;2023-04-26T09:04:31;92448.53;;;14.06;67.00
8294;BME280;4185;41.506;24.938;2023-04-26T09:06:59;92446.88;;;14.03;67.79
8294;BME280;4185;41.506;24.938;2023-04-26T09:09:35;92444.88;;;14.03;68.97
8294;BME280;4185;41.506;24.938;2023-04-26T09:12:07;92464.22;;;14.05;68.56
8294;BME280;4185;41.506;24.938;2023-04-26T09:14:34;92465.00;;;14.13;69.39
8294;BME280;4185;41.506;24.938;2023-04-26T09:17:01;92447.53;;;14.16;72.24
8294;BME280;4185;41.506;24.938;2023-04-26T09:19:34;92441.28;;;14.08;74.20
8294;BME280;4185;41.506;24.938;2023-04-26T09:22:02;92446.63;;;13.93;71.62
8294;BME280;4185;41.506;24.938;2023-04-26T09:24:45;92465.53;;;13.58;72.52
8294;BME280;4185;41.506;24.938;2023-04-26T09:27:12;92488.56;;;13.36;72.52
8294;BME280;4185;41.506;24.938;2023-04-26T09:29:40;92487.53;;;13.00;72.60
8294;BME280;4185;41.506;24.938;2023-04-26T09:32:07;92478.53;;;12.92;73.07
8294;BME280;4185;41.506;24.938;2023-04-26T09:34:43;92472.41;;;12.99;71.87
8294;BME280;4185;41.506;24.938;2023-04-26T09:37:11;92463.75;;;13.13;71.14
8294;BME280;4185;41.506;24.938;2023-04-26T09:39:40;92455.22;;;13.30;71.39
8294;BME280;4185;41.506;24.938;2023-04-26T09:42:09;92449.00;;;13.42;70.61
8294;BME280;4185;41.506;24.938;2023-04-26T09:44:37;92467.56;;;13.44;72.82
8294;BME280;4185;41.506;24.938;2023-04-26T09:47:05;92467.56;;;13.31;73.85
8294;BME280;4185;41.506;24.938;2023-04-26T09:49:43;92477.56;;;13.28;75.24
8294;BME280;4185;41.506;24.938;2023-04-26T09:52:11;92476.09;;;13.27;74.00
8294;BME280;4185;41.506;24.938;2023-04-26T09:54:40;92476.81;;;13.28;74.80
8294;BME280;4185;41.506;24.938;2023-04-26T09:57:09;92474.09;;;13.28;74.48
8294;BME280;4185;41.506;24.938;2023-04-26T09:59:44;92473.88;;;13.26;75.50
8294;BME280;4185;41.506;24.938;2023-04-26T10:02:19;92473.59;;;13.16;79.18
8294;BME280;4185;41.506;24.938;2023-04-26T10:04:49;92486.72;;;13.05;77.81
8294;BME280;4185;41.506;24.938;2023-04-26T10:07:18;92477.16;;;12.98;79.10
8294;BME280;4185;41.506;24.938;2023-04-26T10:09:45;92475.56;;;12.90;79.90
8294;BME280;4185;41.506;24.938;2023-04-26T10:12:14;92482.78;;;12.87;79.87
8294;BME280;4185;41.506;24.938;2023-04-26T10:14:42;92468.16;;;12.90;80.27
8294;BME280;4185;41.506;24.938;2023-04-26T10:17:12;92481.44;;;12.94;79.45
8294;BME280;4185;41.506;24.938;2023-04-26T10:19:41;92470.75;;;12.96;80.50
8294;BME280;4185;41.506;24.938;2023-04-26T10:22:14;92472.22;;;12.84;81.01
8294;BME280;4185;41.506;24.938;2023-04-26T10:24:42;92470.84;;;12.77;82.37
8294;BME280;4185;41.506;24.938;2023-04-26T10:27:09;92480.81;;;12.75;84.39
8294;BME280;4185;41.506;24.938;2023-04-26T10:30:07;92474.31;;;12.91;85.93
8294;BME280;4185;41.506;24.938;2023-04-26T10:36:05;92473.16;;;12.99;84.39
8294;BME280;4185;41.506;24.938;2023-04-26T10:38:33;92472.63;;;12.88;84.13
8294;BME280;4185;41.506;24.938;2023-04-26T10:41:31;92467.19;;;12.88;84.15
8294;BME280;4185;41.506;24.938;2023-04-26T10:44:00;92464.56;;;12.82;83.92
8294;BME280;4185;41.506;24.938;2023-04-26T10:46:50;92460.38;;;12.81;85.93
8294;BME280;4185;41.506;24.938;2023-04-26T10:49:18;92465.22;;;12.88;84.27
8294;BME280;4185;41.506;24.938;2023-04-26T10:52:09;92459.22;;;12.90;80.92
8294;BME280;4185;41.506;24.938;2023-04-26T10:54:50;92462.47;;;12.88;80.13
8294;BME280;4185;41.506;24.938;2023-04-26T10:57:18;92466.34;;;12.80;82.79
8294;BME280;4185;41.506;24.938;2023-04-26T11:03:02;92467.28;;;12.69;81.17
8294;BME280;4185;41.506;24.938;2023-04-26T11:08:24;92457.97;;;12.78;82.29
8294;BME280;4185;41.506;24.938;2023-04-26T11:10:57;92468.13;;;12.77;78.19
8294;BME280;4185;41.506;24.938;2023-04-26T11:13:24;92470.75;;;12.70;79.03
8294;BME280;4185;41.506;24.938;2023-04-26T11:15:52;92478.06;;;12.62;74.80
8294;BME280;4185;41.506;24.938;2023-04-26T11:18:20;92483.72;;;12.51;77.30
8294;BME280;4185;41.506;24.938;2023-04-26T11:20:47;92483.72;;;12.51;77.38
8294;BME280;4185;41.506;24.938;2023-04-26T11:23:17;92489.25;;;12.45;75.74
8294;BME280;4185;41.506;24.938;2023-04-26T11:25:43;92492.28;;;12.42;75.84
8294;BME280;4185;41.506;24.938;2023-04-26T11:28:11;92485.78;;;12.32;76.21
8294;BME280;4185;41.506;24.938;2023-04-26T11:30:37;92485.16;;;12.25;76.55
8294;BME280;4185;41.506;24.938;2023-04-26T11:33:04;92492.56;;;12.25;75.53
8294;BME280;4185;41.506;24.938;2023-04-26T11:35:37;92489.09;;;12.24;75.92
8294;BME280;4185;41.506;24.938;2023-04-26T11:38:04;92492.66;;;12.19;75.70
8294;BME280;4185;41.506;24.938;2023-04-26T11:40:32;92504.19;;;12.12;77.59
8294;BME280;4185;41.506;24.938;2023-04-26T11:43:01;92502.28;;;12.07;77.25
8294;BME280;4185;41.506;24.938;2023-04-26T11:45:30;92507.56;;;12.00;79.52
8294;BME280;4185;41.506;24.938;2023-04-26T11:47:58;92510.38;;;11.94;78.84
8294;BME280;4185;41.506;24.938;2023-04-26T11:50:25;92515.81;;;11.94;78.41
8294;BME280;4185;41.506;24.938;2023-04-26T11:52:55;92524.16;;;11.83;80.57
8294;BME280;4185;41.506;24.938;2023-04-26T11:55:23;92523.06;;;11.73;80.81
8294;BME280;4185;41.506;24.938;2023-04-26T11:57:51;92521.44;;;11.65;82.25
8294;BME280;4185;41.506;24.938;2023-04-26T12:00:20;92521.72;;;11.61;83.32
8294;BME280;4185;41.506;24.938;2023-04-26T12:02:48;92523.91;;;11.63;83.29
8294;BME280;4185;41.506;24.938;2023-04-26T12:05:23;92528.28;;;11.71;83.41
8294;BME280;4185;41.506;24.938;2023-04-26T12:07:51;92526.78;;;11.70;83.96
8294;BME280;4185;41.506;24.938;2023-04-26T12:10:23;92522.63;;;11.69;83.00
8294;BME280;4185;41.506;24.938;2023-04-26T12:12:52;92528.06;;;11.69;83.40
8294;BME280;4185;41.506;24.938;2023-04-26T12:15:28;92525.84;;;11.68;81.76
8294;BME280;4185;41.506;24.938;2023-04-26T12:17:58;92511.13;;;11.58;83.61
8294;BME280;4185;41.506;24.938;2023-04-26T12:20:26;92507.38;;;11.42;83.04
8294;BME280;4185;41.506;24.938;2023-04-26T12:23:12;92514.88;;;11.36;83.08
8294;BME280;4185;41.506;24.938;2023-04-26T12:25:50;92514.88;;;11.36;84.33
8294;BME280;4185;41.506;24.938;2023-04-26T12:28:19;92518.69;;;11.28;83.04
8294;BME280;4185;41.506;24.938;2023-04-26T12:30:46;92512.81;;;11.24;83.49
8294;BME280;4185;41.506;24.938;2023-04-26T12:33:13;92515.53;;;11.24;83.53
8294;BME280;4185;41.506;24.938;2023-04-26T12:35:41;92516.03;;;11.22;83.51
8294;BME280;4185;41.506;24.938;2023-04-26T12:38:08;92508.53;;;11.28;82.03
8294;BME280;4185;41.506;24.938;2023-04-26T12:40:35;92515.19;;;11.33;82.27
8294;BME280;4185;41.506;24.938;2023-04-26T12:43:03;92511.88;;;11.40;81.47
8294;BME280;4185;41.506;24.938;2023-04-26T12:45:30;92523.91;;;11.44;81.14
8294;BME280;4185;41.506;24.938;2023-04-26T12:47:57;92520.47;;;11.44;81.32
8294;BME280;4185;41.506;24.938;2023-04-26T12:50:24;92520.09;;;11.34;82.12
8294;BME280;4185;41.506;24.938;2023-04-26T12:52:51;92525.53;;;11.34;82.41
8294;BME280;4185;41.506;24.938;2023-04-26T12:55:18;92518.59;;;11.33;82.08
8294;BME280;4185;41.506;24.938;2023-04-26T12:57:45;92529.47;;;11.33;82.11
8294;BME280;4185;41.506;24.938;2023-04-26T13:00:15;92538.97;;;11.27;81.12
8294;BME280;4185;41.506;24.938;2023-04-26T13:02:43;92533.16;;;11.17;82.11
8294;BME280;4185;41.506;24.938;2023-04-26T13:05:12;92541.75;;;11.21;82.59
8294;BME280;4185;41.506;24.938;2023-04-26T13:07:41;92535.34;;;11.19;81.77
8294;BME280;4185;41.506;24.938;2023-04-26T13:10:08;92539.03;;;11.21;82.87
8294;BME280;4185;41.506;24.938;2023-04-26T13:12:35;92540.50;;;11.22;82.75
8294;BME280;4185;41.506;24.938;2023-04-26T13:15:03;92541.97;;;11.23;84.27
8294;BME280;4185;41.506;24.938;2023-04-26T13:17:33;92548.13;;;11.24;83.45
8294;BME280;4185;41.506;24.938;2023-04-26T13:20:00;92551.59;;;11.24;83.81
8294;BME280;4185;41.506;24.938;2023-04-26T13:22:28;92551.09;;;11.26;84.00
8294;BME280;4185;41.506;24.938;2023-04-26T13:24:56;92552.03;;;11.28;84.69
8294;BME280;4185;41.506;24.938;2023-04-26T13:27:23;92555.22;;;11.32;84.80